M I D A S
Marine Information and Data Acquisition System
Tripno 1201 of the Zeeleeuw from 2007-01-16 07:30:47 to 2007-01-16 16:02:14
Back to CruiseResearch ActivitiesStationsMapUnderway DataData graphs

EquipmentUnitsComments
TimeDGPSUTC
LatitudeDGPSDM.mWGS84
LongitudeDGPSDM.mWGS84
SpeedMeteo Stationm/sRelative wind speed
DirectionMeteo StationdegRelative wind direction
TemperatureMeteo Stationdeg CelciusAir temperature
PressureMeteo StationPaAtmospheric pressure
HumidityMeteo Station%Relative humidity
Missing or incorrect values are displayed as -999
Metereological data collected by the RV Zeeleeuw from 2007-01-16 07:34:15 to 2007-01-16 16:20:21
Time Latitude Longitude Speed Direction Temperature Pressure Humidity
2007-01-16 07:35 51°13.607 2°56.062 -999 -999 -999 -999 -999
2007-01-16 07:36 51°13.614 2°56.028 -999 -999 -999 -999 -999
2007-01-16 07:37 51°13.621 2°55.991 -999 -999 -999 -999 -999
2007-01-16 07:38 51°13.643 2°55.92 -999 -999 -999 -999 -999
2007-01-16 07:39 51°13.676 2°55.843 -999 -999 -999 -999 -999
2007-01-16 07:40 51°13.707 2°55.764 -999 -999 -999 -999 -999
2007-01-16 07:41 51°13.714 2°55.704 -999 -999 -999 -999 -999
2007-01-16 07:42 51°13.722 2°55.709 -999 -999 -999 -999 -999
2007-01-16 07:43 51°13.727 2°55.714 -999 -999 -999 -999 -999
2007-01-16 07:44 51°13.737 2°55.711 -999 -999 -999 -999 -999
2007-01-16 07:45 51°13.799 2°55.663 -999 -999 -999 -999 -999
2007-01-16 07:46 51°13.904 2°55.584 -999 -999 -999 -999 -999
2007-01-16 07:47 51°14.02 2°55.503 -999 -999 -999 -999 -999
2007-01-16 07:48 51°14.136 2°55.416 -999 -999 -999 -999 -999
2007-01-16 07:49 51°14.252 2°55.291 -999 -999 -999 -999 -999
2007-01-16 07:50 51°14.373 2°55.104 -999 -999 -999 -999 -999
2007-01-16 07:51 51°14.538 2°54.932 -999 -999 -999 -999 -999
2007-01-16 07:52 51°14.641 2°54.679 -999 -999 -999 -999 -999
2007-01-16 07:53 51°14.583 2°54.415 -999 -999 -999 -999 -999
2007-01-16 07:54 51°14.457 2°54.219 -999 -999 -999 -999 -999
2007-01-16 07:55 51°14.405 2°53.919 -999 -999 -999 -999 -999
2007-01-16 07:56 51°14.32 2°53.636 -999 -999 -999 -999 -999
2007-01-16 07:57 51°14.194 2°53.378 -999 -999 -999 -999 -999
2007-01-16 07:58 51°14.067 2°53.114 -999 -999 -999 -999 -999
2007-01-16 07:59 51°13.942 2°52.849 -999 -999 -999 -999 -999
2007-01-16 08:00 51°13.818 2°52.581 -999 -999 -999 -999 -999
2007-01-16 08:01 51°13.695 2°52.313 -999 -999 -999 -999 -999
2007-01-16 08:02 51°13.578 2°52.038 -999 -999 -999 -999 -999
2007-01-16 08:03 51°13.467 2°51.758 -999 -999 -999 -999 -999
2007-01-16 08:04 51°13.357 2°51.477 -999 -999 -999 -999 -999
2007-01-16 08:05 51°13.252 2°51.192 -999 -999 -999 -999 -999
2007-01-16 08:06 51°13.149 2°50.904 -999 -999 -999 -999 -999
2007-01-16 08:07 51°13.048 2°50.615 -999 -999 -999 -999 -999
2007-01-16 08:08 51°12.946 2°50.327 -999 -999 -999 -999 -999
2007-01-16 08:09 51°12.844 2°50.039 -999 -999 -999 -999 -999
2007-01-16 08:10 51°12.741 2°49.751 -999 -999 -999 -999 -999
2007-01-16 08:11 51°12.639 2°49.464 -999 -999 -999 -999 -999
2007-01-16 08:12 51°12.538 2°49.176 -999 -999 -999 -999 -999
2007-01-16 08:13 51°12.436 2°48.891 -999 -999 -999 -999 -999
2007-01-16 08:14 51°12.335 2°48.604 -999 -999 -999 -999 -999
2007-01-16 08:15 51°12.237 2°48.314 -999 -999 -999 -999 -999
2007-01-16 08:16 51°12.147 2°48.018 -999 -999 -999 -999 -999
2007-01-16 08:17 51°12.057 2°47.722 -999 -999 -999 -999 -999
2007-01-16 08:18 51°11.969 2°47.425 -999 -999 -999 -999 -999
2007-01-16 08:19 51°11.886 2°47.124 -999 -999 -999 -999 -999
2007-01-16 08:20 51°11.802 2°46.822 -999 -999 -999 -999 -999
2007-01-16 08:21 51°11.718 2°46.522 -999 -999 -999 -999 -999
2007-01-16 08:22 51°11.635 2°46.222 -999 -999 -999 -999 -999
2007-01-16 08:23 51°11.553 2°45.922 -999 -999 -999 -999 -999
2007-01-16 08:24 51°11.47 2°45.623 -999 -999 -999 -999 -999
2007-01-16 08:25 51°11.386 2°45.326 -999 -999 -999 -999 -999
2007-01-16 08:26 51°11.303 2°45.027 -999 -999 -999 -999 -999
2007-01-16 08:27 51°11.221 2°44.731 -999 -999 -999 -999 -999
2007-01-16 08:28 51°11.139 2°44.434 -999 -999 -999 -999 -999
2007-01-16 08:29 51°11.056 2°44.137 -999 -999 -999 -999 -999
2007-01-16 08:30 51°10.974 2°43.839 -999 -999 -999 -999 -999
2007-01-16 08:31 51°10.891 2°43.543 -999 -999 -999 -999 -999
2007-01-16 08:32 51°10.808 2°43.246 -999 -999 -999 -999 -999
2007-01-16 08:33 51°10.726 2°42.949 -999 -999 -999 -999 -999
2007-01-16 08:34 51°10.644 2°42.652 -999 -999 -999 -999 -999
2007-01-16 08:35 51°10.561 2°42.357 -999 -999 -999 -999 -999
2007-01-16 08:36 51°10.479 2°42.061 -999 -999 -999 -999 -999
2007-01-16 08:37 51°10.396 2°41.766 -999 -999 -999 -999 -999
2007-01-16 08:38 51°10.312 2°41.472 -999 -999 -999 -999 -999
2007-01-16 08:39 51°10.232 2°41.177 -999 -999 -999 -999 -999
2007-01-16 08:40 51°10.15 2°40.887 -999 -999 -999 -999 -999
2007-01-16 08:41 51°10.069 2°40.598 -999 -999 -999 -999 -999
2007-01-16 08:42 51°9.986 2°40.309 -999 -999 -999 -999 -999
2007-01-16 08:43 51°9.904 2°40.018 -999 -999 -999 -999 -999
2007-01-16 08:44 51°9.822 2°39.727 -999 -999 -999 -999 -999
2007-01-16 08:45 51°9.74 2°39.436 -999 -999 -999 -999 -999
2007-01-16 08:46 51°9.661 2°39.141 -999 -999 -999 -999 -999
2007-01-16 08:47 51°9.582 2°38.843 -999 -999 -999 -999 -999
2007-01-16 08:48 51°9.502 2°38.544 -999 -999 -999 -999 -999
2007-01-16 08:49 51°9.429 2°38.241 -999 -999 -999 -999 -999
2007-01-16 08:50 51°9.356 2°37.937 -999 -999 -999 -999 -999
2007-01-16 08:51 51°9.283 2°37.633 -999 -999 -999 -999 -999
2007-01-16 08:52 51°9.212 2°37.329 -999 -999 -999 -999 -999
2007-01-16 08:53 51°9.144 2°37.023 -999 -999 -999 -999 -999
2007-01-16 08:54 51°9.08 2°36.715 -999 -999 -999 -999 -999
2007-01-16 08:55 51°9.016 2°36.41 -999 -999 -999 -999 -999
2007-01-16 08:56 51°8.953 2°36.105 -999 -999 -999 -999 -999
2007-01-16 08:57 51°8.889 2°35.801 -999 -999 -999 -999 -999
2007-01-16 08:58 51°8.829 2°35.494 -999 -999 -999 -999 -999
2007-01-16 08:59 51°8.768 2°35.187 -999 -999 -999 -999 -999
2007-01-16 09:00 51°8.706 2°34.881 -999 -999 -999 -999 -999
2007-01-16 09:01 51°8.645 2°34.574 -999 -999 -999 -999 -999
2007-01-16 09:02 51°8.584 2°34.269 -999 -999 -999 -999 -999
2007-01-16 09:03 51°8.515 2°33.969 -999 -999 -999 -999 -999
2007-01-16 09:04 51°8.448 2°33.666 -999 -999 -999 -999 -999
2007-01-16 09:05 51°8.382 2°33.377 -999 -999 -999 -999 -999
2007-01-16 09:06 51°8.319 2°33.093 -999 -999 -999 -999 -999
2007-01-16 09:07 51°8.265 2°32.847 -999 -999 -999 -999 -999
2007-01-16 09:08 51°8.226 2°32.724 -999 -999 -999 -999 -999
2007-01-16 09:09 51°8.219 2°32.657 -999 -999 -999 -999 -999
2007-01-16 09:10 51°8.23 2°32.609 -999 -999 -999 -999 -999
2007-01-16 09:11 51°8.259 2°32.589 -999 -999 -999 -999 -999
2007-01-16 09:12 51°8.288 2°32.589 -999 -999 -999 -999 -999
2007-01-16 09:13 51°8.311 2°32.597 -999 -999 -999 -999 -999
2007-01-16 09:14 51°8.334 2°32.611 -999 -999 -999 -999 -999
2007-01-16 09:15 51°8.357 2°32.629 -999 -999 -999 -999 -999
2007-01-16 09:16 51°8.381 2°32.65 -999 -999 -999 -999 -999
2007-01-16 09:17 51°8.406 2°32.673 -999 -999 -999 -999 -999
2007-01-16 09:18 51°8.433 2°32.699 -999 -999 -999 -999 -999
2007-01-16 09:19 51°8.46 2°32.725 -999 -999 -999 -999 -999
2007-01-16 09:20 51°8.487 2°32.752 -999 -999 -999 -999 -999
2007-01-16 09:21 51°8.515 2°32.78 -999 -999 -999 -999 -999
2007-01-16 09:22 51°8.543 2°32.81 -999 -999 -999 -999 -999
2007-01-16 09:23 51°8.571 2°32.841 -999 -999 -999 -999 -999
2007-01-16 09:24 51°8.599 2°32.872 -999 -999 -999 -999 -999
2007-01-16 09:25 51°8.626 2°32.902 -999 -999 -999 -999 -999
2007-01-16 09:26 51°8.653 2°32.933 -999 -999 -999 -999 -999
2007-01-16 09:27 51°8.679 2°32.963 -999 -999 -999 -999 -999
2007-01-16 09:28 51°8.706 2°32.995 -999 -999 -999 -999 -999
2007-01-16 09:29 51°8.732 2°33.027 -999 -999 -999 -999 -999
2007-01-16 09:30 51°8.758 2°33.058 -999 -999 -999 -999 -999
2007-01-16 09:31 51°8.785 2°33.085 -999 -999 -999 -999 -999
2007-01-16 09:32 51°8.814 2°33.094 -999 -999 -999 -999 -999
2007-01-16 09:33 51°8.855 2°33.078 -999 -999 -999 -999 -999
2007-01-16 09:34 51°8.918 2°33.063 -999 -999 -999 -999 -999
2007-01-16 09:35 51°8.985 2°33.111 -999 -999 -999 -999 -999
2007-01-16 09:36 51°9.022 2°33.193 -999 -999 -999 -999 -999
2007-01-16 09:37 51°9.041 2°33.278 -999 -999 -999 -999 -999
2007-01-16 09:38 51°9.056 2°33.364 -999 -999 -999 -999 -999
2007-01-16 09:39 51°9.08 2°33.446 -999 -999 -999 -999 -999
2007-01-16 09:40 51°9.11 2°33.533 -999 -999 -999 -999 -999
2007-01-16 09:41 51°9.131 2°33.621 -999 -999 -999 -999 -999
2007-01-16 09:42 51°9.142 2°33.714 -999 -999 -999 -999 -999
2007-01-16 09:43 51°9.145 2°33.801 -999 -999 -999 -999 -999
2007-01-16 09:44 51°9.141 2°33.885 -999 -999 -999 -999 -999
2007-01-16 09:45 51°9.131 2°33.963 -999 -999 -999 -999 -999
2007-01-16 09:46 51°9.118 2°34.032 -999 -999 -999 -999 -999
2007-01-16 09:47 51°9.1 2°34.086 -999 -999 -999 -999 -999
2007-01-16 09:48 51°9.067 2°34.13 -999 -999 -999 -999 -999
2007-01-16 09:49 51°9.027 2°34.181 -999 -999 -999 -999 -999
2007-01-16 09:50 51°8.988 2°34.232 -999 -999 -999 -999 -999
2007-01-16 09:51 51°8.946 2°34.249 -999 -999 -999 -999 -999
2007-01-16 09:52 51°8.908 2°34.224 -999 -999 -999 -999 -999
2007-01-16 09:53 51°8.862 2°34.216 -999 -999 -999 -999 -999
2007-01-16 09:54 51°8.813 2°34.204 -999 -999 -999 -999 -999
2007-01-16 09:55 51°8.767 2°34.172 -999 -999 -999 -999 -999
2007-01-16 09:56 51°8.727 2°34.125 -999 -999 -999 -999 -999
2007-01-16 09:57 51°8.693 2°34.069 -999 -999 -999 -999 -999
2007-01-16 09:58 51°8.649 2°34.031 -999 -999 -999 -999 -999
2007-01-16 09:59 51°8.603 2°33.996 -999 -999 -999 -999 -999
2007-01-16 10:00 51°8.557 2°33.96 -999 -999 -999 -999 -999
2007-01-16 10:01 51°8.511 2°33.923 -999 -999 -999 -999 -999
2007-01-16 10:02 51°8.467 2°33.876 -999 -999 -999 -999 -999
2007-01-16 10:03 51°8.434 2°33.815 -999 -999 -999 -999 -999
2007-01-16 10:04 51°8.408 2°33.744 -999 -999 -999 -999 -999
2007-01-16 10:05 51°8.381 2°33.672 -999 -999 -999 -999 -999
2007-01-16 10:06 51°8.355 2°33.605 -999 -999 -999 -999 -999
2007-01-16 10:07 51°8.328 2°33.538 -999 -999 -999 -999 -999
2007-01-16 10:08 51°8.303 2°33.476 -999 -999 -999 -999 -999
2007-01-16 10:09 51°8.285 2°33.425 -999 -999 -999 -999 -999
2007-01-16 10:10 51°8.269 2°33.381 -999 -999 -999 -999 -999
2007-01-16 10:11 51°8.251 2°33.334 -999 -999 -999 -999 -999
2007-01-16 10:12 51°8.233 2°33.283 -999 -999 -999 -999 -999
2007-01-16 10:13 51°8.216 2°33.23 -999 -999 -999 -999 -999
2007-01-16 10:14 51°8.199 2°33.176 -999 -999 -999 -999 -999
2007-01-16 10:15 51°8.183 2°33.124 -999 -999 -999 -999 -999
2007-01-16 10:16 51°8.17 2°33.069 -999 -999 -999 -999 -999
2007-01-16 10:17 51°8.171 2°33.025 -999 -999 -999 -999 -999
2007-01-16 10:18 51°8.192 2°32.985 -999 -999 -999 -999 -999
2007-01-16 10:19 51°8.225 2°32.956 -999 -999 -999 -999 -999
2007-01-16 10:20 51°8.271 2°32.953 -999 -999 -999 -999 -999
2007-01-16 10:21 51°8.323 2°32.97 -999 -999 -999 -999 -999
2007-01-16 10:22 51°8.372 2°32.994 -999 -999 -999 -999 -999
2007-01-16 10:23 51°8.425 2°33.031 -999 -999 -999 -999 -999
2007-01-16 10:24 51°8.47 2°33.074 -999 -999 -999 -999 -999
2007-01-16 10:25 51°8.514 2°33.121 -999 -999 -999 -999 -999
2007-01-16 10:26 51°8.555 2°33.167 -999 -999 -999 -999 -999
2007-01-16 10:27 51°8.598 2°33.226 -999 -999 -999 -999 -999
2007-01-16 10:28 51°8.63 2°33.306 -999 -999 -999 -999 -999
2007-01-16 10:29 51°8.641 2°33.392 -999 -999 -999 -999 -999
2007-01-16 10:30 51°8.622 2°33.469 -999 -999 -999 -999 -999
2007-01-16 10:31 51°8.575 2°33.502 -999 -999 -999 -999 -999
2007-01-16 10:32 51°8.52 2°33.48 -999 -999 -999 -999 -999
2007-01-16 10:33 51°8.471 2°33.478 -999 -999 -999 -999 -999
2007-01-16 10:34 51°8.424 2°33.492 -999 -999 -999 -999 -999
2007-01-16 10:35 51°8.38 2°33.519 -999 -999 -999 -999 -999
2007-01-16 10:36 51°8.347 2°33.507 -999 -999 -999 -999 -999
2007-01-16 10:37 51°8.34 2°33.453 -999 -999 -999 -999 -999
2007-01-16 10:38 51°8.325 2°33.401 -999 -999 -999 -999 -999
2007-01-16 10:39 51°8.301 2°33.355 -999 -999 -999 -999 -999
2007-01-16 10:40 51°8.276 2°33.31 -999 -999 -999 -999 -999
2007-01-16 10:41 51°8.25 2°33.259 -999 -999 -999 -999 -999
2007-01-16 10:42 51°8.224 2°33.209 -999 -999 -999 -999 -999
2007-01-16 10:43 51°8.203 2°33.162 -999 -999 -999 -999 -999
2007-01-16 10:44 51°8.183 2°33.115 -999 -999 -999 -999 -999
2007-01-16 10:45 51°8.168 2°33.066 -999 -999 -999 -999 -999
2007-01-16 10:46 51°8.156 2°33.014 -999 -999 -999 -999 -999
2007-01-16 10:47 51°8.143 2°32.963 -999 -999 -999 -999 -999
2007-01-16 10:48 51°8.13 2°32.911 -999 -999 -999 -999 -999
2007-01-16 10:49 51°8.118 2°32.859 -999 -999 -999 -999 -999
2007-01-16 10:50 51°8.105 2°32.804 -999 -999 -999 -999 -999
2007-01-16 10:51 51°8.091 2°32.754 -999 -999 -999 -999 -999
2007-01-16 10:52 51°8.074 2°32.707 -999 -999 -999 -999 -999
2007-01-16 10:53 51°8.058 2°32.658 -999 -999 -999 -999 -999
2007-01-16 10:54 51°8.041 2°32.61 -999 -999 -999 -999 -999
2007-01-16 10:55 51°8.023 2°32.562 -999 -999 -999 -999 -999
2007-01-16 10:56 51°8.005 2°32.515 -999 -999 -999 -999 -999
2007-01-16 10:57 51°7.988 2°32.465 -999 -999 -999 -999 -999
2007-01-16 10:58 51°7.972 2°32.418 -999 -999 -999 -999 -999
2007-01-16 10:59 51°7.955 2°32.37 -999 -999 -999 -999 -999
2007-01-16 11:00 51°7.939 2°32.324 -999 -999 -999 -999 -999
2007-01-16 11:01 51°7.922 2°32.278 -999 -999 -999 -999 -999
2007-01-16 11:02 51°7.905 2°32.233 -999 -999 -999 -999 -999
2007-01-16 11:03 51°7.889 2°32.187 -999 -999 -999 -999 -999
2007-01-16 11:04 51°7.871 2°32.138 -999 -999 -999 -999 -999
2007-01-16 11:05 51°7.852 2°32.09 -999 -999 -999 -999 -999
2007-01-16 11:06 51°7.83 2°32.043 -999 -999 -999 -999 -999
2007-01-16 11:07 51°7.807 2°32.004 -999 -999 -999 -999 -999
2007-01-16 11:08 51°7.812 2°31.942 -999 -999 -999 -999 -999
2007-01-16 11:09 51°7.854 2°31.892 -999 -999 -999 -999 -999
2007-01-16 11:10 51°7.918 2°31.882 -999 -999 -999 -999 -999
2007-01-16 11:11 51°7.976 2°31.922 -999 -999 -999 -999 -999
2007-01-16 11:12 51°8.014 2°32.004 -999 -999 -999 -999 -999
2007-01-16 11:13 51°8.027 2°32.103 -999 -999 -999 -999 -999
2007-01-16 11:14 51°8.03 2°32.206 -999 -999 -999 -999 -999
2007-01-16 11:15 51°8.027 2°32.309 -999 -999 -999 -999 -999
2007-01-16 11:16 51°8.023 2°32.411 -999 -999 -999 -999 -999
2007-01-16 11:17 51°8.02 2°32.515 -999 -999 -999 -999 -999
2007-01-16 11:18 51°8.032 2°32.621 -999 -999 -999 -999 -999
2007-01-16 11:19 51°8.066 2°32.712 -999 -999 -999 -999 -999
2007-01-16 11:20 51°8.114 2°32.799 -999 -999 -999 -999 -999
2007-01-16 11:21 51°8.155 2°32.881 -999 -999 -999 -999 -999
2007-01-16 11:22 51°8.192 2°32.957 -999 -999 -999 -999 -999
2007-01-16 11:23 51°8.228 2°33.03 -999 -999 -999 -999 -999
2007-01-16 11:24 51°8.266 2°33.101 -999 -999 -999 -999 -999
2007-01-16 11:25 51°8.305 2°33.17 -999 -999 -999 -999 -999
2007-01-16 11:26 51°8.343 2°33.24 -999 -999 -999 -999 -999
2007-01-16 11:27 51°8.373 2°33.315 -999 -999 -999 -999 -999
2007-01-16 11:28 51°8.389 2°33.382 -999 -999 -999 -999 -999
2007-01-16 11:29 51°8.4 2°33.444 -999 -999 -999 -999 -999
2007-01-16 11:30 51°8.407 2°33.503 -999 -999 -999 -999 -999
2007-01-16 11:31 51°8.409 2°33.558 -999 -999 -999 -999 -999
2007-01-16 11:32 51°8.412 2°33.6 -999 -999 -999 -999 -999
2007-01-16 11:33 51°8.421 2°33.634 -999 -999 -999 -999 -999
2007-01-16 11:34 51°8.432 2°33.666 -999 -999 -999 -999 -999
2007-01-16 11:35 51°8.446 2°33.694 -999 -999 -999 -999 -999
2007-01-16 11:36 51°8.456 2°33.736 -999 -999 -999 -999 -999
2007-01-16 11:37 51°8.444 2°33.8 -999 -999 -999 -999 -999
2007-01-16 11:38 51°8.434 2°33.852 -999 -999 -999 -999 -999
2007-01-16 11:39 51°8.434 2°33.893 -999 -999 -999 -999 -999
2007-01-16 11:40 51°8.44 2°33.929 -999 -999 -999 -999 -999
2007-01-16 11:41 51°8.429 2°33.962 -999 -999 -999 -999 -999
2007-01-16 11:42 51°8.406 2°33.898 -999 -999 -999 -999 -999
2007-01-16 11:43 51°8.476 2°33.855 -999 -999 -999 -999 -999
2007-01-16 11:44 51°8.546 2°33.912 -999 -999 -999 -999 -999
2007-01-16 11:45 51°8.591 2°34.012 -999 -999 -999 -999 -999
2007-01-16 11:46 51°8.632 2°34.11 -999 -999 -999 -999 -999
2007-01-16 11:47 51°8.675 2°34.204 -999 -999 -999 -999 -999
2007-01-16 11:48 51°8.722 2°34.287 -999 -999 -999 -999 -999
2007-01-16 11:49 51°8.756 2°34.363 -999 -999 -999 -999 -999
2007-01-16 11:50 51°8.776 2°34.428 -999 -999 -999 -999 -999
2007-01-16 11:51 51°8.793 2°34.485 -999 -999 -999 -999 -999
2007-01-16 11:52 51°8.81 2°34.542 -999 -999 -999 -999 -999
2007-01-16 11:53 51°8.826 2°34.599 -999 -999 -999 -999 -999
2007-01-16 11:54 51°8.843 2°34.657 -999 -999 -999 -999 -999
2007-01-16 11:55 51°8.861 2°34.713 -999 -999 -999 -999 -999
2007-01-16 11:56 51°8.879 2°34.772 -999 -999 -999 -999 -999
2007-01-16 11:57 51°8.896 2°34.829 -999 -999 -999 -999 -999
2007-01-16 11:58 51°8.911 2°34.886 -999 -999 -999 -999 -999
2007-01-16 11:59 51°8.926 2°34.944 -999 -999 -999 -999 -999
2007-01-16 12:00 51°8.936 2°35.004 -999 -999 -999 -999 -999
2007-01-16 12:01 51°8.941 2°35.067 -999 -999 -999 -999 -999
2007-01-16 12:02 51°8.941 2°35.13 -999 -999 -999 -999 -999
2007-01-16 12:03 51°8.938 2°35.193 -999 -999 -999 -999 -999
2007-01-16 12:04 51°8.935 2°35.257 -999 -999 -999 -999 -999
2007-01-16 12:05 51°8.934 2°35.322 -999 -999 -999 -999 -999
2007-01-16 12:06 51°8.937 2°35.389 -999 -999 -999 -999 -999
2007-01-16 12:07 51°8.949 2°35.458 -999 -999 -999 -999 -999
2007-01-16 12:08 51°8.967 2°35.526 -999 -999 -999 -999 -999
2007-01-16 12:09 51°8.987 2°35.593 -999 -999 -999 -999 -999
2007-01-16 12:10 51°9.009 2°35.659 -999 -999 -999 -999 -999
2007-01-16 12:11 51°9.034 2°35.723 -999 -999 -999 -999 -999
2007-01-16 12:12 51°9.06 2°35.787 -999 -999 -999 -999 -999
2007-01-16 12:13 51°9.087 2°35.852 -999 -999 -999 -999 -999
2007-01-16 12:14 51°9.111 2°35.917 -999 -999 -999 -999 -999
2007-01-16 12:15 51°9.135 2°35.983 -999 -999 -999 -999 -999
2007-01-16 12:16 51°9.157 2°36.049 -999 -999 -999 -999 -999
2007-01-16 12:17 51°9.178 2°36.115 -999 -999 -999 -999 -999
2007-01-16 12:18 51°9.201 2°36.181 -999 -999 -999 -999 -999
2007-01-16 12:19 51°9.225 2°36.244 -999 -999 -999 -999 -999
2007-01-16 12:20 51°9.254 2°36.304 -999 -999 -999 -999 -999
2007-01-16 12:21 51°9.287 2°36.361 -999 -999 -999 -999 -999
2007-01-16 12:22 51°9.319 2°36.419 -999 -999 -999 -999 -999
2007-01-16 12:23 51°9.349 2°36.481 -999 -999 -999 -999 -999
2007-01-16 12:24 51°9.376 2°36.543 -999 -999 -999 -999 -999
2007-01-16 12:25 51°9.406 2°36.602 -999 -999 -999 -999 -999
2007-01-16 12:26 51°9.442 2°36.655 -999 -999 -999 -999 -999
2007-01-16 12:27 51°9.474 2°36.714 -999 -999 -999 -999 -999
2007-01-16 12:28 51°9.503 2°36.775 -999 -999 -999 -999 -999
2007-01-16 12:29 51°9.531 2°36.836 -999 -999 -999 -999 -999
2007-01-16 12:30 51°9.561 2°36.897 -999 -999 -999 -999 -999
2007-01-16 12:31 51°9.587 2°36.96 -999 -999 -999 -999 -999
2007-01-16 12:32 51°9.6 2°37.023 -999 -999 -999 -999 -999
2007-01-16 12:33 51°9.606 2°37.083 -999 -999 -999 -999 -999
2007-01-16 12:34 51°9.609 2°37.143 -999 -999 -999 -999 -999
2007-01-16 12:35 51°9.609 2°37.204 -999 -999 -999 -999 -999
2007-01-16 12:36 51°9.608 2°37.257 -999 -999 -999 -999 -999
2007-01-16 12:37 51°9.61 2°37.299 -999 -999 -999 -999 -999
2007-01-16 12:38 51°9.611 2°37.336 -999 -999 -999 -999 -999
2007-01-16 12:39 51°9.583 2°37.367 -999 -999 -999 -999 -999
2007-01-16 12:40 51°9.549 2°37.282 -999 -999 -999 -999 -999
2007-01-16 12:41 51°9.475 2°37.049 -999 -999 -999 -999 -999
2007-01-16 12:42 51°9.36 2°36.778 -999 -999 -999 -999 -999
2007-01-16 12:43 51°9.26 2°36.468 -999 -999 -999 -999 -999
2007-01-16 12:44 51°9.171 2°36.15 -999 -999 -999 -999 -999
2007-01-16 12:45 51°9.091 2°35.823 -999 -999 -999 -999 -999
2007-01-16 12:46 51°9.013 2°35.496 -999 -999 -999 -999 -999
2007-01-16 12:47 51°8.936 2°35.168 -999 -999 -999 -999 -999
2007-01-16 12:48 51°8.859 2°34.842 -999 -999 -999 -999 -999
2007-01-16 12:49 51°8.782 2°34.515 -999 -999 -999 -999 -999
2007-01-16 12:50 51°8.704 2°34.189 -999 -999 -999 -999 -999
2007-01-16 12:51 51°8.626 2°33.861 -999 -999 -999 -999 -999
2007-01-16 12:52 51°8.549 2°33.532 -999 -999 -999 -999 -999
2007-01-16 12:53 51°8.487 2°33.234 -999 -999 -999 -999 -999
2007-01-16 12:54 51°8.44 2°33.045 -999 -999 -999 -999 -999
2007-01-16 12:55 51°8.394 2°32.89 -999 -999 -999 -999 -999
2007-01-16 12:56 51°8.319 2°32.786 -999 -999 -999 -999 -999
2007-01-16 12:57 51°8.256 2°32.667 -999 -999 -999 -999 -999
2007-01-16 12:58 51°8.213 2°32.61 -999 -999 -999 -999 -999
2007-01-16 12:59 51°8.191 2°32.588 -999 -999 -999 -999 -999
2007-01-16 13:00 51°8.183 2°32.588 -999 -999 -999 -999 -999
2007-01-16 13:01 51°8.183 2°32.599 -999 -999 -999 -999 -999
2007-01-16 13:02 51°8.188 2°32.614 -999 -999 -999 -999 -999
2007-01-16 13:03 51°8.196 2°32.629 -999 -999 -999 -999 -999
2007-01-16 13:04 51°8.205 2°32.645 -999 -999 -999 -999 -999
2007-01-16 13:05 51°8.215 2°32.661 -999 -999 -999 -999 -999
2007-01-16 13:06 51°8.223 2°32.677 -999 -999 -999 -999 -999
2007-01-16 13:07 51°8.232 2°32.693 -999 -999 -999 -999 -999
2007-01-16 13:08 51°8.24 2°32.708 -999 -999 -999 -999 -999
2007-01-16 13:09 51°8.243 2°32.738 -999 -999 -999 -999 -999
2007-01-16 13:10 51°8.202 2°32.785 -999 -999 -999 -999 -999
2007-01-16 13:11 51°8.145 2°32.704 -999 -999 -999 -999 -999
2007-01-16 13:12 51°8.074 2°32.579 -999 -999 -999 -999 -999
2007-01-16 13:13 51°7.996 2°32.447 -999 -999 -999 -999 -999
2007-01-16 13:14 51°7.918 2°32.313 -999 -999 -999 -999 -999
2007-01-16 13:15 51°7.879 2°32.171 -999 -999 -999 -999 -999
2007-01-16 13:16 51°7.945 2°32.118 -999 -999 -999 -999 -999
2007-01-16 13:17 51°8.028 2°32.18 -999 -999 -999 -999 -999
2007-01-16 13:18 51°8.123 2°32.302 -999 -999 -999 -999 -999
2007-01-16 13:19 51°8.257 2°32.429 -999 -999 -999 -999 -999
2007-01-16 13:20 51°8.391 2°32.583 -999 -999 -999 -999 -999
2007-01-16 13:21 51°8.469 2°32.715 -999 -999 -999 -999 -999
2007-01-16 13:22 51°8.484 2°32.787 -999 -999 -999 -999 -999
2007-01-16 13:23 51°8.487 2°32.811 -999 -999 -999 -999 -999
2007-01-16 13:24 51°8.49 2°32.829 -999 -999 -999 -999 -999
2007-01-16 13:25 51°8.495 2°32.842 -999 -999 -999 -999 -999
2007-01-16 13:26 51°8.501 2°32.853 -999 -999 -999 -999 -999
2007-01-16 13:27 51°8.508 2°32.862 -999 -999 -999 -999 -999
2007-01-16 13:28 51°8.516 2°32.87 -999 -999 -999 -999 -999
2007-01-16 13:29 51°8.525 2°32.878 -999 -999 -999 -999 -999
2007-01-16 13:30 51°8.535 2°32.884 -999 -999 -999 -999 -999
2007-01-16 13:31 51°8.545 2°32.89 -999 -999 -999 -999 -999
2007-01-16 13:32 51°8.556 2°32.896 -999 -999 -999 -999 -999
2007-01-16 13:33 51°8.567 2°32.902 -999 -999 -999 -999 -999
2007-01-16 13:34 51°8.579 2°32.907 -999 -999 -999 -999 -999
2007-01-16 13:35 51°8.59 2°32.911 -999 -999 -999 -999 -999
2007-01-16 13:36 51°8.6 2°32.917 -999 -999 -999 -999 -999
2007-01-16 13:37 51°8.611 2°32.923 -999 -999 -999 -999 -999
2007-01-16 13:38 51°8.621 2°32.93 -999 -999 -999 -999 -999
2007-01-16 13:39 51°8.63 2°32.936 -999 -999 -999 -999 -999
2007-01-16 13:40 51°8.639 2°32.941 -999 -999 -999 -999 -999
2007-01-16 13:41 51°8.65 2°32.947 -999 -999 -999 -999 -999
2007-01-16 13:42 51°8.66 2°32.951 -999 -999 -999 -999 -999
2007-01-16 13:43 51°8.67 2°32.956 -999 -999 -999 -999 -999
2007-01-16 13:44 51°8.681 2°32.961 -999 -999 -999 -999 -999
2007-01-16 13:45 51°8.691 2°32.965 -999 -999 -999 -999 -999
2007-01-16 13:46 51°8.702 2°32.97 -999 -999 -999 -999 -999
2007-01-16 13:47 51°8.713 2°32.975 -999 -999 -999 -999 -999
2007-01-16 13:48 51°8.724 2°32.98 -999 -999 -999 -999 -999
2007-01-16 13:49 51°8.734 2°32.985 -999 -999 -999 -999 -999
2007-01-16 13:50 51°8.741 2°33.012 -999 -999 -999 -999 -999
2007-01-16 13:51 51°8.77 2°33.062 -999 -999 -999 -999 -999
2007-01-16 13:52 51°8.869 2°33.18 -999 -999 -999 -999 -999
2007-01-16 13:53 51°9.013 2°33.397 -999 -999 -999 -999 -999
2007-01-16 13:54 51°9.159 2°33.659 -999 -999 -999 -999 -999
2007-01-16 13:55 51°9.235 2°33.992 -999 -999 -999 -999 -999
2007-01-16 13:56 51°9.313 2°34.335 -999 -999 -999 -999 -999
2007-01-16 13:57 51°9.42 2°34.648 -999 -999 -999 -999 -999
2007-01-16 13:58 51°9.61 2°34.854 -999 -999 -999 -999 -999
2007-01-16 13:59 51°9.798 2°35.069 -999 -999 -999 -999 -999
2007-01-16 14:00 51°9.982 2°35.292 -999 -999 -999 -999 -999
2007-01-16 14:01 51°10.167 2°35.517 -999 -999 -999 -999 -999
2007-01-16 14:02 51°10.352 2°35.745 -999 -999 -999 -999 -999
2007-01-16 14:03 51°10.53 2°35.989 -999 -999 -999 -999 -999
2007-01-16 14:04 51°10.693 2°36.255 -999 -999 -999 -999 -999
2007-01-16 14:05 51°10.851 2°36.524 -999 -999 -999 -999 -999
2007-01-16 14:06 51°11.01 2°36.792 -999 -999 -999 -999 -999
2007-01-16 14:07 51°11.172 2°37.056 -999 -999 -999 -999 -999
2007-01-16 14:08 51°11.331 2°37.324 -999 -999 -999 -999 -999
2007-01-16 14:09 51°11.488 2°37.594 -999 -999 -999 -999 -999
2007-01-16 14:10 51°11.65 2°37.86 -999 -999 -999 -999 -999
2007-01-16 14:11 51°11.811 2°38.123 -999 -999 -999 -999 -999
2007-01-16 14:12 51°11.97 2°38.387 -999 -999 -999 -999 -999
2007-01-16 14:13 51°12.127 2°38.651 -999 -999 -999 -999 -999
2007-01-16 14:14 51°12.268 2°38.884 -999 -999 -999 -999 -999
2007-01-16 14:15 51°12.333 2°39.037 -999 -999 -999 -999 -999
2007-01-16 14:16 51°12.373 2°39.123 -999 -999 -999 -999 -999
2007-01-16 14:17 51°12.423 2°39.21 -999 -999 -999 -999 -999
2007-01-16 14:18 51°12.47 2°39.291 -999 -999 -999 -999 -999
2007-01-16 14:19 51°12.513 2°39.358 -999 -999 -999 -999 -999
2007-01-16 14:20 51°12.555 2°39.387 -999 -999 -999 -999 -999
2007-01-16 14:21 51°12.577 2°39.389 -999 -999 -999 -999 -999
2007-01-16 14:22 51°12.594 2°39.391 -999 -999 -999 -999 -999
2007-01-16 14:23 51°12.608 2°39.39 -999 -999 -999 -999 -999
2007-01-16 14:24 51°12.619 2°39.387 -999 -999 -999 -999 -999
2007-01-16 14:25 51°12.622 2°39.372 -999 -999 -999 -999 -999
2007-01-16 14:26 51°12.63 2°39.375 -999 -999 -999 -999 -999
2007-01-16 14:27 51°12.633 2°39.395 -999 -999 -999 -999 -999
2007-01-16 14:28 51°12.645 2°39.365 -999 -999 -999 -999 -999
2007-01-16 14:29 51°12.639 2°39.389 -999 -999 -999 -999 -999
2007-01-16 14:30 51°12.602 2°39.412 -999 -999 -999 -999 -999
2007-01-16 14:31 51°12.557 2°39.395 -999 -999 -999 -999 -999
2007-01-16 14:32 51°12.546 2°39.373 -999 -999 -999 -999 -999
2007-01-16 14:33 51°12.548 2°39.356 -999 -999 -999 -999 -999
2007-01-16 14:34 51°12.555 2°39.351 -999 -999 -999 -999 -999
2007-01-16 14:35 51°12.56 2°39.358 -999 -999 -999 -999 -999
2007-01-16 14:36 51°12.564 2°39.361 -999 -999 -999 -999 -999
2007-01-16 14:37 51°12.568 2°39.361 -999 -999 -999 -999 -999
2007-01-16 14:38 51°12.57 2°39.361 -999 -999 -999 -999 -999
2007-01-16 14:39 51°12.572 2°39.36 -999 -999 -999 -999 -999
2007-01-16 14:40 51°12.573 2°39.359 -999 -999 -999 -999 -999
2007-01-16 14:41 51°12.574 2°39.357 -999 -999 -999 -999 -999
2007-01-16 14:42 51°12.576 2°39.353 -999 -999 -999 -999 -999
2007-01-16 14:43 51°12.579 2°39.348 -999 -999 -999 -999 -999
2007-01-16 14:44 51°12.584 2°39.343 -999 -999 -999 -999 -999
2007-01-16 14:45 51°12.59 2°39.335 -999 -999 -999 -999 -999
2007-01-16 14:46 51°12.613 2°39.315 -999 -999 -999 -999 -999
2007-01-16 14:47 51°12.65 2°39.306 -999 -999 -999 -999 -999
2007-01-16 14:48 51°12.688 2°39.335 -999 -999 -999 -999 -999
2007-01-16 14:49 51°12.693 2°39.344 -999 -999 -999 -999 -999
2007-01-16 14:50 51°12.677 2°39.37 -999 -999 -999 -999 -999
2007-01-16 14:51 51°12.628 2°39.371 -999 -999 -999 -999 -999
2007-01-16 14:52 51°12.591 2°39.393 -999 -999 -999 -999 -999
2007-01-16 14:53 51°12.561 2°39.406 -999 -999 -999 -999 -999
2007-01-16 14:54 51°12.551 2°39.399 -999 -999 -999 -999 -999
2007-01-16 14:55 51°12.551 2°39.392 -999 -999 -999 -999 -999
2007-01-16 14:56 51°12.554 2°39.385 -999 -999 -999 -999 -999
2007-01-16 14:57 51°12.559 2°39.377 -999 -999 -999 -999 -999
2007-01-16 14:58 51°12.564 2°39.371 -999 -999 -999 -999 -999
2007-01-16 14:59 51°12.57 2°39.365 -999 -999 -999 -999 -999
2007-01-16 15:00 51°12.574 2°39.36 -999 -999 -999 -999 -999
2007-01-16 15:01 51°12.578 2°39.355 -999 -999 -999 -999 -999
2007-01-16 15:02 51°12.576 2°39.362 -999 -999 -999 -999 -999
2007-01-16 15:03 51°12.561 2°39.383 -999 -999 -999 -999 -999
2007-01-16 15:04 51°12.551 2°39.392 -999 -999 -999 -999 -999
2007-01-16 15:05 51°12.548 2°39.389 -999 -999 -999 -999 -999
2007-01-16 15:06 51°12.55 2°39.382 -999 -999 -999 -999 -999
2007-01-16 15:07 51°12.553 2°39.373 -999 -999 -999 -999 -999
2007-01-16 15:08 51°12.557 2°39.364 -999 -999 -999 -999 -999
2007-01-16 15:09 51°12.562 2°39.353 -999 -999 -999 -999 -999
2007-01-16 15:10 51°12.567 2°39.342 -999 -999 -999 -999 -999
2007-01-16 15:11 51°12.572 2°39.332 -999 -999 -999 -999 -999
2007-01-16 15:12 51°12.576 2°39.336 -999 -999 -999 -999 -999
2007-01-16 15:13 51°12.582 2°39.419 -999 -999 -999 -999 -999
2007-01-16 15:14 51°12.629 2°39.632 -999 -999 -999 -999 -999
2007-01-16 15:15 51°12.702 2°39.927 -999 -999 -999 -999 -999
2007-01-16 15:16 51°12.779 2°40.24 -999 -999 -999 -999 -999
2007-01-16 15:17 51°12.856 2°40.553 -999 -999 -999 -999 -999
2007-01-16 15:18 51°12.928 2°40.87 -999 -999 -999 -999 -999
2007-01-16 15:19 51°13.003 2°41.186 -999 -999 -999 -999 -999
2007-01-16 15:20 51°13.076 2°41.503 -999 -999 -999 -999 -999
2007-01-16 15:21 51°13.147 2°41.818 -999 -999 -999 -999 -999
2007-01-16 15:22 51°13.221 2°42.14 -999 -999 -999 -999 -999
2007-01-16 15:23 51°13.296 2°42.463 -999 -999 -999 -999 -999
2007-01-16 15:24 51°13.367 2°42.787 -999 -999 -999 -999 -999
2007-01-16 15:25 51°13.443 2°43.107 -999 -999 -999 -999 -999
2007-01-16 15:26 51°13.517 2°43.428 -999 -999 -999 -999 -999
2007-01-16 15:27 51°13.594 2°43.747 -999 -999 -999 -999 -999
2007-01-16 15:28 51°13.668 2°44.063 -999 -999 -999 -999 -999
2007-01-16 15:29 51°13.741 2°44.386 -999 -999 -999 -999 -999
2007-01-16 15:30 51°13.812 2°44.715 -999 -999 -999 -999 -999
2007-01-16 15:31 51°13.886 2°45.039 -999 -999 -999 -999 -999
2007-01-16 15:32 51°13.961 2°45.357 -999 -999 -999 -999 -999
2007-01-16 15:33 51°14.032 2°45.682 -999 -999 -999 -999 -999
2007-01-16 15:34 51°14.107 2°46.003 -999 -999 -999 -999 -999
2007-01-16 15:35 51°14.173 2°46.328 -999 -999 -999 -999 -999
2007-01-16 15:36 51°14.218 2°46.66 -999 -999 -999 -999 -999
2007-01-16 15:37 51°14.261 2°46.993 -999 -999 -999 -999 -999
2007-01-16 15:38 51°14.304 2°47.327 -999 -999 -999 -999 -999
2007-01-16 15:39 51°14.344 2°47.665 -999 -999 -999 -999 -999
2007-01-16 15:40 51°14.373 2°48.004 -999 -999 -999 -999 -999
2007-01-16 15:41 51°14.403 2°48.341 -999 -999 -999 -999 -999
2007-01-16 15:42 51°14.435 2°48.678 -999 -999 -999 -999 -999
2007-01-16 15:43 51°14.47 2°49.013 -999 -999 -999 -999 -999
2007-01-16 15:44 51°14.502 2°49.344 -999 -999 -999 -999 -999
2007-01-16 15:45 51°14.536 2°49.679 -999 -999 -999 -999 -999
2007-01-16 15:46 51°14.569 2°50.015 -999 -999 -999 -999 -999
2007-01-16 15:47 51°14.602 2°50.35 -999 -999 -999 -999 -999
2007-01-16 15:48 51°14.622 2°50.688 -999 -999 -999 -999 -999
2007-01-16 15:49 51°14.635 2°51.026 -999 -999 -999 -999 -999
2007-01-16 15:50 51°14.651 2°51.365 -999 -999 -999 -999 -999
2007-01-16 15:51 51°14.666 2°51.705 -999 -999 -999 -999 -999
2007-01-16 15:52 51°14.683 2°52.045 -999 -999 -999 -999 -999
2007-01-16 15:53 51°14.7 2°52.384 -999 -999 -999 -999 -999
2007-01-16 15:54 51°14.716 2°52.725 -999 -999 -999 -999 -999
2007-01-16 15:55 51°14.734 2°53.067 -999 -999 -999 -999 -999
2007-01-16 15:56 51°14.741 2°53.409 -999 -999 -999 -999 -999
2007-01-16 15:57 51°14.725 2°53.756 -999 -999 -999 -999 -999
2007-01-16 15:58 51°14.681 2°54.094 -999 -999 -999 -999 -999
2007-01-16 15:59 51°14.606 2°54.367 -999 -999 -999 -999 -999
2007-01-16 16:00 51°14.531 2°54.605 -999 -999 -999 -999 -999
2007-01-16 16:01 51°14.449 2°54.831 -999 -999 -999 -999 -999